createdAt,value
2023-01-18T00:01:19.388Z,95840.38
2023-01-18T00:03:46.312Z,95834.28
2023-01-18T00:06:13.460Z,95823.41
2023-01-18T00:08:42.327Z,95827.81
2023-01-18T00:11:15.794Z,95824.13
2023-01-18T00:13:43.335Z,95826.53
2023-01-18T00:16:19.287Z,95821.03
2023-01-18T00:18:57.182Z,95825.16
2023-01-18T00:21:26.843Z,95822.88
2023-01-18T00:23:55.800Z,95817.50
2023-01-18T00:26:22.354Z,95822.66
2023-01-18T00:28:48.991Z,95825.16
2023-01-18T00:31:20.844Z,95816.50
2023-01-18T00:33:49.920Z,95815.69
2023-01-18T00:36:18.044Z,95824.25
2023-01-18T00:38:52.161Z,95820.63
2023-01-18T00:41:21.195Z,95818.63
2023-01-18T00:43:48.200Z,95822.56
2023-01-18T00:46:22.343Z,95823.22
2023-01-18T00:48:49.991Z,95829.13
2023-01-18T00:51:24.194Z,95824.69
2023-01-18T00:53:51.602Z,95823.41
2023-01-18T00:56:21.654Z,95835.94
2023-01-18T00:58:48.718Z,95830.78
2023-01-18T01:01:15.920Z,95832.06
2023-01-18T01:04:01.030Z,95827.81
2023-01-18T01:06:44.511Z,95835.00
2023-01-18T01:09:28.641Z,95831.69
2023-01-18T01:12:16.900Z,95835.00
2023-01-18T01:15:06.285Z,95844.59
2023-01-18T01:17:55.308Z,95848.63
2023-01-18T01:20:42.216Z,95846.53
2023-01-18T01:23:37.710Z,95840.63
2023-01-18T01:26:10.953Z,95846.63
2023-01-18T01:28:49.844Z,95851.97
2023-01-18T01:31:18.356Z,95851.78
2023-01-18T01:33:46.601Z,95849.66
2023-01-18T01:36:17.606Z,95851.69
2023-01-18T01:38:44.243Z,95855.28
2023-01-18T01:41:28.575Z,95861.34
2023-01-18T01:43:58.804Z,95863.28
2023-01-18T01:46:56.010Z,95865.03
2023-01-18T01:49:33.303Z,95870.06
2023-01-18T01:52:05.386Z,95867.47
2023-01-18T01:54:56.187Z,95868.50
2023-01-18T01:57:31.099Z,95860.31
2023-01-18T02:00:15.595Z,95863.88
2023-01-18T02:02:48.872Z,95863.41
2023-01-18T02:05:18.309Z,95874.81
2023-01-18T02:07:45.659Z,95875.81
2023-01-18T02:10:12.256Z,95879.66
2023-01-18T02:12:42.458Z,95887.53
2023-01-18T02:15:09.740Z,95890.34
2023-01-18T02:18:07.004Z,95899.94
2023-01-18T02:21:07.687Z,95893.84
2023-01-18T02:24:00.326Z,95892.91
2023-01-18T02:26:48.658Z,95893.25
2023-01-18T02:29:18.781Z,95887.91
2023-01-18T02:32:29.272Z,95899.22
2023-01-18T02:35:17.831Z,95894.22
2023-01-18T02:38:07.419Z,95894.06
2023-01-18T02:40:51.455Z,95892.91
2023-01-18T02:43:40.770Z,95896.97
2023-01-18T02:46:32.523Z,95892.91
2023-01-18T02:49:06.468Z,95908.41
2023-01-18T02:51:33.400Z,95907.31
2023-01-18T02:54:02.518Z,95908.16
2023-01-18T02:56:47.188Z,95904.50
2023-01-18T02:59:34.870Z,95901.13
2023-01-18T03:02:26.386Z,95911.34
2023-01-18T03:04:55.454Z,95911.34
2023-01-18T03:07:35.520Z,95912.16
2023-01-18T03:10:06.780Z,95910.63
2023-01-18T03:12:53.480Z,95916.03
2023-01-18T03:15:44.249Z,95917.03
2023-01-18T03:18:34.325Z,95917.38
2023-01-18T03:21:05.489Z,95926.28
2023-01-18T03:23:39.938Z,95923.44
2023-01-18T03:26:16.407Z,95932.38
2023-01-18T03:29:12.698Z,95935.00
2023-01-18T03:32:07.683Z,95942.66
2023-01-18T03:35:03.537Z,95950.72
2023-01-18T03:37:38.351Z,95948.31
2023-01-18T03:40:18.176Z,95962.44
2023-01-18T03:43:08.852Z,95956.59
2023-01-18T03:45:49.052Z,95959.88
2023-01-18T03:48:16.493Z,95964.91
2023-01-18T03:50:52.452Z,95961.50
2023-01-18T03:53:48.041Z,95963.50
2023-01-18T03:56:27.667Z,95974.19
2023-01-18T03:59:03.486Z,95978.47
2023-01-18T04:01:30.706Z,95976.97
2023-01-18T04:04:00.036Z,95978.72
2023-01-18T04:06:27.756Z,95980.69
2023-01-18T04:08:54.201Z,95982.50
2023-01-18T04:11:20.668Z,95985.13
2023-01-18T04:13:47.181Z,95990.09
2023-01-18T04:16:13.812Z,95995.13
2023-01-18T04:18:40.636Z,95998.78
2023-01-18T04:21:07.401Z,96002.44
2023-01-18T04:23:33.883Z,96010.09
2023-01-18T04:26:00.374Z,96012.53
2023-01-18T04:28:26.835Z,96005.63
2023-01-18T04:30:56.360Z,96010.19
2023-01-18T04:33:26.479Z,96017.94
2023-01-18T04:35:56.989Z,96021.22
2023-01-18T04:38:23.676Z,96024.72
2023-01-18T04:40:50.700Z,96026.38
2023-01-18T04:43:17.528Z,96033.13
2023-01-18T04:45:53.081Z,96030.72
2023-01-18T04:48:19.596Z,96034.72
2023-01-18T04:50:46.561Z,96031.22
2023-01-18T04:53:13.017Z,96029.31
2023-01-18T04:55:39.475Z,96039.44
2023-01-18T04:58:05.969Z,96044.09
2023-01-18T05:00:32.492Z,96048.31
2023-01-18T05:02:59.304Z,96049.00
2023-01-18T05:05:26.464Z,96048.50
2023-01-18T05:07:53.281Z,96053.81
2023-01-18T05:10:19.842Z,96058.31
2023-01-18T05:12:46.358Z,96051.00
2023-01-18T05:15:12.918Z,96061.63
2023-01-18T05:17:39.457Z,96063.47
2023-01-18T05:20:07.716Z,96061.38
2023-01-18T05:22:34.711Z,96072.41
2023-01-18T05:25:01.901Z,96072.25
2023-01-18T05:27:28.391Z,96075.56
2023-01-18T05:29:54.918Z,96083.16
2023-01-18T05:32:21.446Z,96083.50
2023-01-18T05:34:47.927Z,96089.53
2023-01-18T05:37:14.384Z,96087.31
2023-01-18T05:39:40.898Z,96094.47
2023-01-18T05:42:08.419Z,96096.03
2023-01-18T05:44:34.923Z,96094.88
2023-01-18T05:47:01.604Z,96102.81
2023-01-18T05:49:29.375Z,96102.34
2023-01-18T05:51:55.870Z,96103.03
2023-01-18T05:54:22.442Z,96103.31
2023-01-18T05:56:48.925Z,96110.88
2023-01-18T05:59:15.642Z,96107.88
2023-01-18T06:01:42.717Z,96113.91
2023-01-18T06:04:09.374Z,96111.88
2023-01-18T06:06:35.987Z,96117.13
2023-01-18T06:09:03.421Z,96130.84
2023-01-18T06:11:29.944Z,96128.94
2023-01-18T06:13:56.486Z,96139.25
2023-01-18T06:16:24.393Z,96140.47
2023-01-18T06:18:50.938Z,96140.03
2023-01-18T06:21:17.863Z,96151.06
2023-01-18T06:23:44.714Z,96149.41
2023-01-18T06:26:11.217Z,96155.47
2023-01-18T06:28:37.715Z,96158.78
2023-01-18T06:31:07.706Z,96161.84
2023-01-18T06:33:34.985Z,96164.59
2023-01-18T06:36:01.998Z,96169.59
2023-01-18T06:38:29.678Z,96174.59
2023-01-18T06:40:56.209Z,96183.53
2023-01-18T06:43:22.989Z,96182.78
2023-01-18T06:45:56.859Z,96187.00
2023-01-18T06:48:24.872Z,96188.97
2023-01-18T06:50:52.762Z,96201.84
2023-01-18T06:53:22.415Z,96195.81
2023-01-18T06:56:01.648Z,96194.34
2023-01-18T06:58:30.996Z,96204.66
2023-01-18T07:01:00.457Z,96203.72
2023-01-18T07:03:31.216Z,96215.63
2023-01-18T07:06:02.217Z,96210.97
2023-01-18T07:08:34.262Z,96220.66
2023-01-18T07:11:06.139Z,96222.75
2023-01-18T07:13:32.663Z,96229.41
2023-01-18T07:16:01.872Z,96228.19
2023-01-18T07:18:30.476Z,96233.66
2023-01-18T07:21:08.607Z,96228.56
2023-01-18T07:23:38.051Z,96231.53
2023-01-18T07:26:08.847Z,96235.16
2023-01-18T07:28:36.219Z,96243.03
2023-01-18T07:31:04.725Z,96246.59
2023-01-18T07:33:31.830Z,96252.66
2023-01-18T07:35:59.055Z,96251.44
2023-01-18T07:38:26.034Z,96258.03
2023-01-18T07:41:02.079Z,96268.72
2023-01-18T07:43:30.873Z,96272.03
2023-01-18T07:45:58.318Z,96270.97
2023-01-18T07:48:27.068Z,96272.09
2023-01-18T07:50:56.156Z,96274.84
2023-01-18T07:53:24.347Z,96272.91
2023-01-18T07:55:51.139Z,96283.34
2023-01-18T07:58:18.827Z,96284.53
2023-01-18T08:00:46.512Z,96287.25
2023-01-18T08:03:15.775Z,96295.44
2023-01-18T08:05:44.045Z,96299.00
2023-01-18T08:08:15.453Z,96300.13
2023-01-18T08:10:43.517Z,96305.69
2023-01-18T08:13:10.931Z,96308.97
2023-01-18T08:15:39.109Z,96305.22
2023-01-18T08:18:08.133Z,96317.97
2023-01-18T08:20:35.193Z,96318.88
2023-01-18T08:23:02.423Z,96327.53
2023-01-18T08:25:32.686Z,96329.97
2023-01-18T08:28:02.320Z,96336.03
2023-01-18T08:30:36.486Z,96336.88
2023-01-18T08:33:04.523Z,96352.72
2023-01-18T08:35:39.948Z,96357.09
2023-01-18T08:38:06.571Z,96358.97
2023-01-18T08:40:33.012Z,96361.00
2023-01-18T08:43:02.277Z,96363.44
2023-01-18T08:45:29.919Z,96356.28
2023-01-18T08:48:07.292Z,96363.09
2023-01-18T08:50:36.113Z,96374.19
2023-01-18T08:53:04.012Z,96369.59
2023-01-18T08:55:30.963Z,96383.25
2023-01-18T08:57:58.832Z,96384.78
2023-01-18T09:00:30.186Z,96380.13
2023-01-18T09:02:58.494Z,96397.03
2023-01-18T09:05:26.972Z,96396.09
2023-01-18T09:07:55.311Z,96399.44
2023-01-18T09:10:23.138Z,96402.78
2023-01-18T09:12:51.619Z,96410.34
2023-01-18T09:15:19.313Z,96416.47
2023-01-18T09:17:46.293Z,96416.03
2023-01-18T09:20:13.115Z,96414.59
2023-01-18T09:22:39.883Z,96419.63
2023-01-18T09:25:06.947Z,96420.59
2023-01-18T09:27:33.731Z,96429.69
2023-01-18T09:30:00.548Z,96438.94
2023-01-18T09:32:27.429Z,96445.47
2023-01-18T09:34:54.795Z,96444.84
2023-01-18T09:37:22.176Z,96439.56
2023-01-18T09:39:52.760Z,96442.28
2023-01-18T09:42:28.668Z,96443.72
2023-01-18T09:45:01.047Z,96444.00
2023-01-18T09:47:34.340Z,96451.28
2023-01-18T09:50:15.220Z,96452.88
2023-01-18T09:52:57.260Z,96451.47
2023-01-18T09:55:46.404Z,96448.06
2023-01-18T09:58:47.464Z,96450.47
2023-01-18T10:01:26.466Z,96461.31
2023-01-18T10:04:00.828Z,96464.97
2023-01-18T10:06:43.323Z,96465.47
2023-01-18T10:09:26.236Z,96478.59
2023-01-18T10:12:00.214Z,96478.16
2023-01-18T10:14:56.481Z,96473.03
2023-01-18T10:17:36.157Z,96474.13
2023-01-18T10:20:23.930Z,96472.53
2023-01-18T10:22:59.308Z,96482.00
2023-01-18T10:25:53.183Z,96476.13
2023-01-18T10:28:41.095Z,96477.69
2023-01-18T10:31:22.980Z,96484.28
2023-01-18T10:33:56.296Z,96477.91
2023-01-18T10:36:33.384Z,96482.47
2023-01-18T10:39:28.009Z,96485.41
2023-01-18T10:42:01.850Z,96484.34
2023-01-18T10:44:29.308Z,96484.63
2023-01-18T10:47:01.268Z,96491.06
2023-01-18T10:49:36.503Z,96483.56
2023-01-18T10:52:32.475Z,96484.72
2023-01-18T10:55:03.411Z,96488.25
2023-01-18T10:57:36.864Z,96489.91
2023-01-18T11:00:30.651Z,96494.38
2023-01-18T11:03:00.047Z,96496.16
2023-01-18T11:05:38.256Z,96492.88
2023-01-18T11:08:33.518Z,96502.91
2023-01-18T11:11:50.567Z,96499.75
2023-01-18T11:14:30.563Z,96503.81
2023-01-18T11:17:11.333Z,96497.06
2023-01-18T11:19:39.326Z,96492.88
2023-01-18T11:22:13.513Z,96499.66
2023-01-18T11:24:40.287Z,96499.72
2023-01-18T11:27:23.026Z,96491.84
2023-01-18T11:29:50.456Z,96498.00
2023-01-18T11:32:27.812Z,96490.50
2023-01-18T11:34:59.741Z,96492.44
2023-01-18T11:37:37.202Z,96493.81
2023-01-18T11:40:18.911Z,96494.44
2023-01-18T11:42:48.603Z,96497.66
2023-01-18T11:45:26.622Z,96499.91
2023-01-18T11:48:22.620Z,96500.72
2023-01-18T11:50:58.850Z,96500.84
2023-01-18T11:53:55.593Z,96494.53
2023-01-18T11:56:40.767Z,96504.31
2023-01-18T11:59:24.690Z,96510.72
2023-01-18T12:02:34.391Z,96517.25
2023-01-18T12:05:36.482Z,96506.91
2023-01-18T12:08:43.815Z,96514.31
2023-01-18T12:11:32.804Z,96507.34
2023-01-18T12:14:30.991Z,96507.41
2023-01-18T12:17:07.105Z,96517.94
2023-01-18T12:20:22.815Z,96525.13
2023-01-18T12:23:29.783Z,96523.28
2023-01-18T12:26:24.407Z,96525.13
2023-01-18T12:28:59.988Z,96527.81
2023-01-18T12:32:14.928Z,96525.88
2023-01-18T12:34:56.153Z,96527.19
2023-01-18T12:37:49.349Z,96534.63
2023-01-18T12:40:33.827Z,96532.44
2023-01-18T12:43:37.717Z,96539.06
2023-01-18T12:46:21.451Z,96537.72
2023-01-18T12:49:00.581Z,96530.97
2023-01-18T12:51:34.124Z,96536.16
2023-01-18T12:54:15.785Z,96542.41
2023-01-18T12:56:49.770Z,96537.53
2023-01-18T12:59:40.757Z,96540.44
2023-01-18T13:02:33.427Z,96546.66
2023-01-18T13:05:06.869Z,96540.50
2023-01-18T13:07:44.007Z,96539.66
2023-01-18T13:10:26.903Z,96540.00
2023-01-18T13:12:56.951Z,96541.66
2023-01-18T13:15:42.770Z,96544.56
2023-01-18T13:18:25.955Z,96548.09
2023-01-18T13:21:16.712Z,96542.75
2023-01-18T13:24:17.145Z,96543.75
2023-01-18T13:26:45.374Z,96543.03
2023-01-18T13:29:30.852Z,96545.34
2023-01-18T13:31:58.349Z,96553.13
2023-01-18T13:34:33.565Z,96560.38
2023-01-18T13:37:14.273Z,96566.81
2023-01-18T13:39:48.215Z,96559.78
2023-01-18T13:42:20.430Z,96560.78
2023-01-18T13:44:50.052Z,96568.28
2023-01-18T13:47:45.814Z,96571.13
2023-01-18T13:50:40.007Z,96575.78
2023-01-18T13:53:15.657Z,96589.28
2023-01-18T13:56:04.902Z,96579.09
2023-01-18T13:58:34.879Z,96590.22
2023-01-18T14:01:05.090Z,96588.63
2023-01-18T14:03:42.886Z,96590.09
2023-01-18T14:06:30.106Z,96605.25
2023-01-18T14:09:05.195Z,96612.09
2023-01-18T14:11:37.945Z,96604.41
2023-01-18T14:14:32.429Z,96611.91
2023-01-18T14:17:07.495Z,96607.25
2023-01-18T14:20:20.221Z,96615.50
2023-01-18T14:23:17.093Z,96619.31
2023-01-18T14:26:05.940Z,96625.59
2023-01-18T14:28:52.186Z,96634.69
2023-01-18T14:31:28.998Z,96638.91
2023-01-18T14:33:55.748Z,96637.84
2023-01-18T14:36:27.516Z,96640.69
2023-01-18T14:39:13.878Z,96648.56
2023-01-18T14:41:45.473Z,96643.38
2023-01-18T14:44:58.306Z,96648.56
2023-01-18T14:47:32.514Z,96650.16
2023-01-18T14:50:03.899Z,96648.56
2023-01-18T14:52:34.376Z,96654.31
2023-01-18T14:55:01.087Z,96661.09
2023-01-18T14:57:27.675Z,96649.09
2023-01-18T15:00:08.262Z,96657.41
2023-01-18T15:02:38.714Z,96657.13
2023-01-18T15:05:14.158Z,96661.31
2023-01-18T15:07:41.529Z,96657.25
2023-01-18T15:10:09.611Z,96672.22
2023-01-18T15:12:38.754Z,96663.88
2023-01-18T15:15:18.134Z,96673.78
2023-01-18T15:17:44.686Z,96667.56
2023-01-18T15:20:15.179Z,96670.75
2023-01-18T15:22:42.926Z,96684.25
2023-01-18T15:25:26.170Z,96687.78
2023-01-18T15:27:54.560Z,96684.69
2023-01-18T15:30:24.265Z,96691.81
2023-01-18T15:32:57.443Z,96687.38
2023-01-18T15:35:25.734Z,96696.81
2023-01-18T15:37:52.479Z,96693.47
2023-01-18T15:40:18.942Z,96692.06
2023-01-18T15:43:05.781Z,96702.38
2023-01-18T15:45:40.272Z,96699.13
2023-01-18T15:48:22.432Z,96708.38
2023-01-18T15:50:53.601Z,96713.31
2023-01-18T15:53:29.610Z,96716.03
2023-01-18T15:56:03.293Z,96721.72
2023-01-18T15:58:47.478Z,96723.63
2023-01-18T16:01:13.949Z,96718.88
2023-01-18T16:03:58.571Z,96727.72
2023-01-18T16:06:25.919Z,96720.13
2023-01-18T16:09:12.830Z,96728.88
2023-01-18T16:11:46.417Z,96737.16
2023-01-18T16:14:27.677Z,96739.66
2023-01-18T16:17:22.809Z,96747.66
2023-01-18T16:19:57.677Z,96743.84
2023-01-18T16:22:28.797Z,96746.50
2023-01-18T16:25:15.051Z,96750.84
2023-01-18T16:27:51.358Z,96749.00
2023-01-18T16:30:22.943Z,96742.50
2023-01-18T16:32:49.706Z,96750.00
2023-01-18T16:35:21.510Z,96749.16
2023-01-18T16:37:49.977Z,96754.84
2023-01-18T16:40:20.555Z,96758.41
2023-01-18T16:43:01.520Z,96763.13
2023-01-18T16:45:31.073Z,96768.47
2023-01-18T16:47:57.918Z,96768.28
2023-01-18T16:50:24.831Z,96776.13
2023-01-18T16:52:51.316Z,96782.94
2023-01-18T16:55:18.216Z,96774.94
2023-01-18T16:57:45.629Z,96781.47
2023-01-18T17:00:24.443Z,96781.97
2023-01-18T17:02:51.712Z,96788.59
2023-01-18T17:05:18.940Z,96784.88
2023-01-18T17:07:45.845Z,96789.38
2023-01-18T17:10:36.281Z,96785.31
2023-01-18T17:13:03.228Z,96791.31
2023-01-18T17:15:32.377Z,96795.06
2023-01-18T17:17:58.905Z,96791.94
2023-01-18T17:20:27.259Z,96798.78
2023-01-18T17:22:55.575Z,96789.34
2023-01-18T17:25:23.801Z,96804.94
2023-01-18T17:27:51.027Z,96808.13
2023-01-18T17:30:22.110Z,96811.41
2023-01-18T17:32:49.552Z,96817.16
2023-01-18T17:35:19.954Z,96816.03
2023-01-18T17:37:46.480Z,96828.09
2023-01-18T17:40:22.511Z,96822.63
2023-01-18T17:42:51.772Z,96827.63
2023-01-18T17:45:18.596Z,96829.16
2023-01-18T17:47:45.286Z,96836.91
2023-01-18T17:50:18.937Z,96846.91
2023-01-18T17:52:45.529Z,96849.16
2023-01-18T17:55:14.377Z,96856.66
2023-01-18T17:57:42.195Z,96865.91
2023-01-18T18:00:11.895Z,96867.31
2023-01-18T18:02:38.427Z,96872.25
2023-01-18T18:05:05.788Z,96868.72
2023-01-18T18:07:32.927Z,96867.84
2023-01-18T18:10:01.203Z,96874.16
2023-01-18T18:12:31.411Z,96873.53
2023-01-18T18:14:58.338Z,96884.59
2023-01-18T18:17:28.592Z,96889.84
2023-01-18T18:19:55.595Z,96895.06
2023-01-18T18:22:22.794Z,96894.44
2023-01-18T18:24:50.529Z,96889.41
2023-01-18T18:27:17.952Z,96902.31
2023-01-18T18:29:45.083Z,96901.28
2023-01-18T18:32:13.618Z,96903.56
2023-01-18T18:34:40.450Z,96904.41
2023-01-18T18:37:07.474Z,96913.13
2023-01-18T18:39:34.256Z,96911.38
2023-01-18T18:42:01.554Z,96914.50
2023-01-18T18:44:28.242Z,96911.06
2023-01-18T18:46:54.779Z,96920.09
2023-01-18T18:49:22.054Z,96928.88
2023-01-18T18:51:48.624Z,96926.63
2023-01-18T18:54:15.434Z,96925.72
2023-01-18T18:56:42.255Z,96912.59
2023-01-18T18:59:08.827Z,96921.03
2023-01-18T19:01:35.562Z,96922.38
2023-01-18T19:04:02.527Z,96929.44
2023-01-18T19:06:29.178Z,96932.22
2023-01-18T19:08:55.923Z,96935.53
2023-01-18T19:11:22.952Z,96939.53
2023-01-18T19:13:49.762Z,96946.50
2023-01-18T19:16:17.266Z,96935.84
2023-01-18T19:18:43.890Z,96943.91
2023-01-18T19:21:10.451Z,96944.63
2023-01-18T19:23:36.990Z,96955.00
2023-01-18T19:26:03.911Z,96946.47
2023-01-18T19:28:31.017Z,96951.53
2023-01-18T19:31:16.051Z,96947.28
2023-01-18T19:33:42.614Z,96954.16
2023-01-18T19:36:13.747Z,96953.25
2023-01-18T19:38:46.720Z,96956.91
2023-01-18T19:41:17.352Z,96958.72
2023-01-18T19:43:47.694Z,96954.72
2023-01-18T19:46:15.166Z,96962.34
2023-01-18T19:48:42.416Z,96955.97
2023-01-18T19:51:22.134Z,96961.75
2023-01-18T19:53:51.712Z,96965.16
2023-01-18T19:56:18.329Z,96961.72
2023-01-18T19:58:44.838Z,96972.06
2023-01-18T20:01:23.440Z,96965.03
2023-01-18T20:03:56.996Z,96967.06
2023-01-18T20:06:23.654Z,96965.16
2023-01-18T20:08:53.969Z,96970.00
2023-01-18T20:11:20.514Z,96971.94
2023-01-18T20:13:50.659Z,96975.41
2023-01-18T20:16:20.285Z,96977.19
2023-01-18T20:18:48.714Z,96979.84
2023-01-18T20:21:18.966Z,96983.16
2023-01-18T20:23:46.184Z,96985.56
2023-01-18T20:26:20.014Z,96992.06
2023-01-18T20:28:55.781Z,96989.41
2023-01-18T20:31:23.049Z,96990.94
2023-01-18T20:33:49.619Z,96984.13
2023-01-18T20:36:16.169Z,96998.13
2023-01-18T20:38:42.717Z,97000.84
2023-01-18T20:41:09.213Z,96999.06
2023-01-18T20:43:35.789Z,96996.06
2023-01-18T20:46:09.914Z,97002.34
2023-01-18T20:48:37.808Z,96998.53
2023-01-18T20:51:07.373Z,97007.75
2023-01-18T20:53:34.522Z,97011.75
2023-01-18T20:56:04.129Z,97008.53
2023-01-18T20:58:31.365Z,97012.84
2023-01-18T21:01:03.630Z,97009.16
2023-01-18T21:03:30.140Z,97016.78
2023-01-18T21:05:56.670Z,97019.16
2023-01-18T21:08:23.187Z,97023.38
2023-01-18T21:10:50.823Z,97015.56
2023-01-18T21:13:18.227Z,97026.97
2023-01-18T21:15:47.642Z,97020.38
2023-01-18T21:18:14.115Z,97026.88
2023-01-18T21:20:40.647Z,97033.41
2023-01-18T21:23:07.199Z,97032.50
2023-01-18T21:25:33.660Z,97032.75
2023-01-18T21:28:00.709Z,97042.31
2023-01-18T21:30:27.477Z,97037.91
2023-01-18T21:32:53.985Z,97041.41
2023-01-18T21:35:20.518Z,97047.16
2023-01-18T21:37:47.076Z,97054.75
2023-01-18T21:40:13.565Z,97049.44
2023-01-18T21:42:58.545Z,97056.19
2023-01-18T21:45:43.906Z,97054.72
2023-01-18T21:48:10.471Z,97050.50
2023-01-18T21:50:59.087Z,97052.88
2023-01-18T21:53:44.567Z,97056.13
2023-01-18T21:56:11.167Z,97052.34
2023-01-18T21:58:56.224Z,97049.88
2023-01-18T22:01:38.483Z,97053.22
2023-01-18T22:04:27.748Z,97056.31
2023-01-18T22:06:54.357Z,97053.81
2023-01-18T22:09:21.259Z,97058.53
2023-01-18T22:11:47.989Z,97068.56
2023-01-18T22:14:15.293Z,97063.34
2023-01-18T22:16:42.044Z,97069.00
2023-01-18T22:19:10.609Z,97073.66
2023-01-18T22:21:37.363Z,97070.03
2023-01-18T22:24:04.135Z,97068.34
2023-01-18T22:26:31.187Z,97078.81
2023-01-18T22:28:57.901Z,97081.47
2023-01-18T22:31:25.494Z,97078.63
2023-01-18T22:33:52.093Z,97080.56
2023-01-18T22:36:18.676Z,97081.47
2023-01-18T22:38:45.561Z,97084.56
2023-01-18T22:41:18.809Z,97086.03
2023-01-18T22:43:46.283Z,97091.13
2023-01-18T22:46:16.322Z,97095.84
2023-01-18T22:48:44.651Z,97093.13
2023-01-18T22:51:16.206Z,97099.09
2023-01-18T22:53:44.415Z,97097.25
2023-01-18T22:56:15.172Z,97098.91
2023-01-18T22:58:42.328Z,97100.03
2023-01-18T23:01:28.212Z,97101.94
2023-01-18T23:04:01.898Z,97106.00
2023-01-18T23:06:41.745Z,97103.69
2023-01-18T23:09:10.010Z,97108.50
2023-01-18T23:11:37.876Z,97105.31
2023-01-18T23:14:23.833Z,97096.63
2023-01-18T23:17:09.185Z,97095.78
2023-01-18T23:19:36.267Z,97110.22
2023-01-18T23:22:07.284Z,97110.03
2023-01-18T23:24:36.498Z,97106.59
2023-01-18T23:27:07.128Z,97103.09
2023-01-18T23:29:33.751Z,97107.16
2023-01-18T23:32:00.295Z,97102.72
2023-01-18T23:34:26.789Z,97104.81
2023-01-18T23:36:53.793Z,97104.25
2023-01-18T23:39:38.945Z,97110.28
2023-01-18T23:42:24.188Z,97108.09
2023-01-18T23:45:09.609Z,97111.13
2023-01-18T23:47:54.970Z,97106.47
2023-01-18T23:50:41.427Z,97105.56
2023-01-18T23:53:31.437Z,97106.09
2023-01-18T23:55:58.986Z,97112.09
2023-01-18T23:58:25.931Z,97113.78
